createdAt,value
2023-01-19T00:00:47.759Z,80.61
2023-01-19T00:03:17.962Z,80.70
2023-01-19T00:05:46.336Z,80.52
2023-01-19T00:08:17.378Z,81.59
2023-01-19T00:10:46.851Z,81.59
2023-01-19T00:13:15.180Z,81.59
2023-01-19T00:15:43.047Z,81.58
2023-01-19T00:18:11.391Z,81.42
2023-01-19T00:20:40.820Z,81.44
2023-01-19T00:23:09.409Z,81.51
2023-01-19T00:25:42.260Z,81.05
2023-01-19T00:28:10.022Z,81.49
2023-01-19T00:30:38.218Z,82.25
2023-01-19T00:33:06.001Z,82.75
2023-01-19T00:35:33.844Z,82.82
2023-01-19T00:38:03.065Z,82.42
2023-01-19T00:40:30.770Z,82.40
2023-01-19T00:43:00.173Z,82.83
2023-01-19T00:45:28.303Z,83.07
2023-01-19T00:47:57.268Z,82.99
2023-01-19T00:50:25.667Z,82.70
2023-01-19T00:52:54.094Z,82.77
2023-01-19T00:55:23.917Z,82.68
2023-01-19T00:57:51.593Z,82.81
2023-01-19T01:00:20.721Z,82.58
2023-01-19T01:02:49.779Z,82.49
2023-01-19T01:05:18.126Z,82.25
2023-01-19T01:07:46.949Z,82.14
2023-01-19T01:10:16.282Z,81.91
2023-01-19T01:13:05.044Z,82.71
2023-01-19T01:15:33.103Z,82.08
2023-01-19T01:18:00.774Z,81.80
2023-01-19T01:20:30.475Z,81.72
2023-01-19T01:22:59.138Z,81.71
2023-01-19T01:25:30.920Z,81.50
2023-01-19T01:27:59.979Z,81.45
2023-01-19T01:30:27.642Z,81.55
2023-01-19T01:32:55.329Z,81.81
2023-01-19T01:35:23.013Z,81.59
2023-01-19T01:37:50.687Z,81.47
2023-01-19T01:40:19.514Z,81.44
2023-01-19T01:42:47.236Z,81.79
2023-01-19T01:45:30.417Z,81.34
2023-01-19T01:48:01.432Z,81.70
2023-01-19T01:50:31.213Z,81.87
2023-01-19T01:53:06.661Z,82.08
2023-01-19T01:55:36.507Z,82.68
2023-01-19T01:58:05.196Z,82.63
2023-01-19T02:00:54.663Z,82.69
2023-01-19T02:03:22.993Z,82.25
2023-01-19T02:05:51.286Z,81.71
2023-01-19T02:08:39.294Z,81.76
2023-01-19T02:11:24.601Z,81.79
2023-01-19T02:13:52.700Z,81.70
2023-01-19T02:16:21.941Z,81.98
2023-01-19T02:18:49.697Z,81.79
2023-01-19T02:21:21.170Z,82.56
2023-01-19T02:23:51.871Z,83.48
2023-01-19T02:26:22.256Z,84.14
2023-01-19T02:28:51.919Z,84.36
2023-01-19T02:31:19.886Z,84.62
2023-01-19T02:33:47.658Z,84.88
2023-01-19T02:36:17.001Z,84.41
2023-01-19T02:38:46.401Z,84.01
2023-01-19T02:41:19.267Z,84.33
2023-01-19T02:43:49.515Z,84.31
2023-01-19T02:46:17.371Z,84.14
2023-01-19T02:48:45.079Z,84.08
2023-01-19T02:51:15.516Z,83.80
2023-01-19T02:54:27.601Z,83.93
2023-01-19T02:57:36.833Z,83.78
2023-01-19T03:00:18.915Z,83.37
2023-01-19T03:02:55.072Z,83.02
2023-01-19T03:05:33.586Z,82.97
2023-01-19T03:08:09.205Z,82.65
2023-01-19T03:10:44.977Z,82.51
2023-01-19T03:13:15.507Z,82.33
2023-01-19T03:15:47.832Z,83.47
2023-01-19T03:18:15.951Z,84.24
2023-01-19T03:20:45.385Z,84.41
2023-01-19T03:23:14.592Z,84.65
2023-01-19T03:25:44.963Z,84.46
2023-01-19T03:28:14.396Z,84.06
2023-01-19T03:30:47.314Z,84.02
2023-01-19T03:33:17.734Z,83.76
2023-01-19T03:35:48.976Z,83.35
2023-01-19T03:38:18.161Z,83.49
2023-01-19T03:40:47.426Z,83.22
2023-01-19T03:43:16.540Z,83.02
2023-01-19T03:45:44.359Z,83.14
2023-01-19T03:48:13.707Z,82.53
2023-01-19T03:50:41.683Z,82.88
2023-01-19T03:53:11.396Z,82.47
2023-01-19T03:55:41.141Z,82.29
2023-01-19T03:58:09.072Z,82.29
2023-01-19T04:00:37.475Z,82.25
2023-01-19T04:03:05.690Z,82.30
2023-01-19T04:05:34.810Z,82.20
2023-01-19T04:08:02.513Z,82.77
2023-01-19T04:10:30.141Z,82.50
2023-01-19T04:12:59.552Z,82.51
2023-01-19T04:15:27.648Z,82.37
2023-01-19T04:17:55.580Z,82.17
2023-01-19T04:20:23.349Z,81.87
2023-01-19T04:22:52.822Z,81.58
2023-01-19T04:25:20.527Z,80.91
2023-01-19T04:27:48.394Z,81.47
2023-01-19T04:30:16.750Z,82.11
2023-01-19T04:32:44.400Z,82.46
2023-01-19T04:35:12.204Z,82.45
2023-01-19T04:37:40.000Z,82.30
2023-01-19T04:40:11.067Z,82.45
2023-01-19T04:42:38.771Z,82.40
2023-01-19T04:45:07.304Z,82.17
2023-01-19T04:47:35.237Z,81.86
2023-01-19T04:50:02.945Z,81.89
2023-01-19T04:52:35.070Z,82.15
2023-01-19T04:55:02.857Z,82.15
2023-01-19T04:57:32.033Z,81.82
2023-01-19T04:59:59.961Z,81.42
2023-01-19T05:02:27.992Z,81.98
2023-01-19T05:04:55.691Z,81.42
2023-01-19T05:07:23.397Z,81.40
2023-01-19T05:09:51.112Z,81.28
2023-01-19T05:12:18.828Z,81.31
2023-01-19T05:14:47.889Z,81.42
2023-01-19T05:17:15.611Z,81.36
2023-01-19T05:19:43.489Z,81.34
2023-01-19T05:22:11.402Z,81.33
2023-01-19T05:24:39.538Z,81.32
2023-01-19T05:27:07.333Z,81.07
2023-01-19T05:29:35.323Z,80.92
2023-01-19T05:32:04.647Z,80.69
2023-01-19T05:34:32.391Z,80.59
2023-01-19T05:37:00.112Z,80.76
2023-01-19T05:39:28.581Z,80.83
2023-01-19T05:41:56.234Z,80.94
2023-01-19T05:44:23.915Z,80.60
2023-01-19T05:46:51.621Z,81.27
2023-01-19T05:49:20.692Z,81.25
2023-01-19T05:51:48.378Z,80.94
2023-01-19T05:54:16.200Z,81.35
2023-01-19T05:56:44.386Z,80.97
2023-01-19T05:59:12.394Z,81.00
2023-01-19T06:01:40.541Z,81.03
2023-01-19T06:04:08.376Z,81.41
2023-01-19T06:06:37.436Z,81.53
2023-01-19T06:09:05.269Z,81.35
2023-01-19T06:11:32.928Z,81.68
2023-01-19T06:14:00.638Z,82.35
2023-01-19T06:16:28.572Z,82.74
2023-01-19T06:18:56.234Z,82.97
2023-01-19T06:21:24.148Z,82.65
2023-01-19T06:23:53.229Z,82.12
2023-01-19T06:26:20.935Z,82.26
2023-01-19T06:28:48.649Z,82.08
2023-01-19T06:31:16.409Z,81.98
2023-01-19T06:33:44.177Z,81.46
2023-01-19T06:36:11.884Z,81.51
2023-01-19T06:38:39.840Z,81.41
2023-01-19T06:41:08.882Z,81.35
2023-01-19T06:43:36.587Z,81.15
2023-01-19T06:46:04.823Z,80.91
2023-01-19T06:48:32.645Z,80.88
2023-01-19T06:51:00.345Z,80.92
2023-01-19T06:53:30.220Z,81.02
2023-01-19T06:56:00.688Z,80.97
2023-01-19T06:58:30.662Z,80.68
2023-01-19T07:01:02.458Z,80.50
2023-01-19T07:03:30.286Z,80.87
2023-01-19T07:05:58.327Z,81.08
2023-01-19T07:08:26.031Z,80.62
2023-01-19T07:11:24.989Z,80.76
2023-01-19T07:13:44.775Z,81.12
2023-01-19T07:16:13.936Z,81.15
2023-01-19T07:18:41.874Z,81.37
2023-01-19T07:21:10.380Z,81.29
2023-01-19T07:23:38.507Z,81.47
2023-01-19T07:26:06.895Z,81.75
2023-01-19T07:28:34.797Z,81.46
2023-01-19T07:31:04.282Z,81.54
2023-01-19T07:33:32.248Z,81.32
2023-01-19T07:36:00.200Z,81.23
2023-01-19T07:38:27.957Z,81.33
2023-01-19T07:41:02.383Z,81.12
2023-01-19T07:43:30.091Z,81.10
2023-01-19T07:45:58.207Z,80.79
2023-01-19T07:48:29.256Z,80.96
2023-01-19T07:51:00.958Z,81.16
2023-01-19T07:53:29.003Z,81.00
2023-01-19T07:55:57.508Z,81.01
2023-01-19T07:58:26.393Z,80.90
2023-01-19T08:00:54.641Z,80.93
2023-01-19T08:03:22.413Z,80.80
2023-01-19T08:05:53.156Z,81.27
2023-01-19T08:08:21.662Z,81.07
2023-01-19T08:10:51.369Z,81.15
2023-01-19T08:13:19.532Z,81.41
2023-01-19T08:15:50.698Z,81.57
2023-01-19T08:18:18.905Z,81.23
2023-01-19T08:20:46.963Z,81.08
2023-01-19T08:23:18.311Z,81.14
2023-01-19T08:25:46.201Z,81.08
2023-01-19T08:28:15.725Z,81.56
2023-01-19T08:30:45.129Z,81.82
2023-01-19T08:33:13.771Z,81.76
2023-01-19T08:35:43.229Z,81.46
2023-01-19T08:38:11.924Z,81.59
2023-01-19T08:40:42.456Z,81.57
2023-01-19T08:43:12.902Z,81.84
2023-01-19T08:45:46.480Z,81.63
2023-01-19T08:48:21.607Z,81.61
2023-01-19T08:50:50.683Z,81.68
2023-01-19T08:53:19.228Z,81.47
2023-01-19T08:55:48.333Z,81.75
2023-01-19T08:58:16.125Z,81.59
2023-01-19T09:00:43.803Z,81.24
2023-01-19T09:03:13.418Z,81.39
2023-01-19T09:05:41.977Z,81.14
2023-01-19T09:08:12.941Z,80.99
2023-01-19T09:10:45.243Z,81.36
2023-01-19T09:13:14.436Z,80.68
2023-01-19T09:15:43.565Z,81.14
2023-01-19T09:18:13.662Z,81.09
2023-01-19T09:20:42.678Z,80.99
2023-01-19T09:23:11.714Z,80.93
2023-01-19T09:25:39.736Z,80.61
2023-01-19T09:28:09.149Z,80.41
2023-01-19T09:30:40.822Z,80.43
2023-01-19T09:33:11.049Z,79.97
2023-01-19T09:35:39.077Z,80.08
2023-01-19T09:38:07.419Z,80.61
2023-01-19T09:40:36.329Z,80.96
2023-01-19T09:43:14.131Z,81.10
2023-01-19T09:45:48.455Z,80.78
2023-01-19T09:48:27.676Z,80.55
2023-01-19T09:50:57.639Z,80.18
2023-01-19T09:53:31.206Z,80.36
2023-01-19T09:55:59.168Z,79.96
2023-01-19T09:58:26.961Z,79.44
2023-01-19T10:00:59.523Z,79.74
2023-01-19T10:03:28.835Z,80.00
2023-01-19T10:05:59.875Z,80.22
2023-01-19T10:08:31.817Z,80.21
2023-01-19T10:11:00.316Z,80.30
2023-01-19T10:13:36.451Z,80.13
2023-01-19T10:16:14.436Z,79.67
2023-01-19T10:18:47.818Z,80.04
2023-01-19T10:21:20.453Z,79.69
2023-01-19T10:23:52.142Z,79.70
2023-01-19T10:26:24.428Z,79.92
2023-01-19T10:28:54.631Z,79.91
2023-01-19T10:31:25.109Z,79.70
2023-01-19T10:33:54.030Z,80.00
2023-01-19T10:36:25.130Z,79.84
2023-01-19T10:38:52.887Z,80.16
2023-01-19T10:41:24.157Z,79.93
2023-01-19T10:44:00.371Z,79.80
2023-01-19T10:46:34.768Z,79.28
2023-01-19T10:49:02.706Z,79.51
2023-01-19T10:51:30.562Z,79.80
2023-01-19T10:54:01.262Z,80.43
2023-01-19T10:56:32.537Z,80.54
2023-01-19T10:59:02.175Z,80.24
2023-01-19T11:01:35.872Z,80.03
2023-01-19T11:04:21.495Z,80.12
2023-01-19T11:06:49.193Z,80.10
2023-01-19T11:09:19.262Z,79.85
2023-01-19T11:11:49.376Z,80.00
2023-01-19T11:14:20.688Z,80.70
2023-01-19T11:16:51.532Z,80.40
2023-01-19T11:19:27.073Z,80.04
2023-01-19T11:21:56.097Z,79.96
2023-01-19T11:24:24.370Z,79.74
2023-01-19T11:26:57.507Z,79.57
2023-01-19T11:29:26.827Z,79.78
2023-01-19T11:31:57.726Z,80.22
2023-01-19T11:34:29.475Z,80.75
2023-01-19T11:36:59.081Z,81.08
2023-01-19T11:39:29.019Z,81.10
2023-01-19T11:41:58.153Z,80.67
2023-01-19T11:44:29.117Z,80.60
2023-01-19T11:47:00.747Z,80.60
2023-01-19T11:49:39.397Z,80.63
2023-01-19T11:52:13.940Z,80.98
2023-01-19T11:54:47.405Z,80.65
2023-01-19T11:57:17.120Z,81.05
2023-01-19T11:59:45.284Z,80.74
2023-01-19T12:02:21.506Z,80.70
2023-01-19T12:04:50.591Z,81.00
2023-01-19T12:07:22.125Z,80.93
2023-01-19T12:09:53.666Z,81.09
2023-01-19T12:12:28.522Z,80.88
2023-01-19T12:15:00.784Z,81.20
2023-01-19T12:17:32.419Z,80.83
2023-01-19T12:20:06.282Z,81.07
2023-01-19T12:22:39.927Z,81.06
2023-01-19T12:25:17.769Z,80.60
2023-01-19T12:27:46.319Z,80.84
2023-01-19T12:30:20.847Z,80.63
2023-01-19T12:32:51.248Z,80.70
2023-01-19T12:35:52.566Z,80.13
2023-01-19T12:38:43.515Z,79.95
2023-01-19T12:41:23.652Z,80.27
2023-01-19T12:44:24.251Z,80.29
2023-01-19T12:46:54.817Z,80.03
2023-01-19T12:49:27.980Z,80.41
2023-01-19T12:52:11.469Z,80.19
2023-01-19T12:54:41.280Z,79.88
2023-01-19T12:57:10.686Z,79.92
2023-01-19T12:59:38.766Z,80.03
2023-01-19T13:02:52.841Z,79.91
2023-01-19T13:05:25.922Z,79.52
2023-01-19T13:08:15.985Z,79.77
2023-01-19T13:11:25.980Z,79.85
2023-01-19T13:14:36.218Z,79.56
2023-01-19T13:17:18.578Z,79.10
2023-01-19T13:19:50.354Z,79.25
2023-01-19T13:22:51.549Z,79.35
2023-01-19T13:25:33.579Z,80.57
2023-01-19T13:28:01.937Z,80.46
2023-01-19T13:30:30.676Z,80.04
2023-01-19T13:33:04.648Z,79.76
2023-01-19T13:35:32.359Z,79.68
2023-01-19T13:38:01.975Z,80.18
2023-01-19T13:40:36.828Z,79.99
2023-01-19T13:43:04.990Z,80.27
2023-01-19T13:45:34.405Z,80.18
2023-01-19T13:48:04.204Z,80.28
2023-01-19T13:50:33.795Z,80.69
2023-01-19T13:53:04.623Z,80.48
2023-01-19T13:55:34.909Z,80.01
2023-01-19T13:58:02.934Z,80.06
2023-01-19T14:00:31.620Z,80.23
2023-01-19T14:03:01.218Z,80.51
2023-01-19T14:05:32.167Z,80.51
2023-01-19T14:08:11.735Z,80.77
2023-01-19T14:10:40.827Z,80.26
2023-01-19T14:13:16.041Z,80.55
2023-01-19T14:15:44.860Z,80.00
2023-01-19T14:18:24.408Z,80.50
2023-01-19T14:21:01.178Z,80.55
2023-01-19T14:23:45.618Z,80.45
2023-01-19T14:26:46.762Z,80.34
2023-01-19T14:29:26.357Z,80.41
2023-01-19T14:32:07.523Z,80.94
2023-01-19T14:34:38.676Z,80.54
2023-01-19T14:37:13.483Z,80.46
2023-01-19T14:39:45.892Z,80.68
2023-01-19T14:42:17.420Z,80.83
2023-01-19T14:44:48.941Z,80.61
2023-01-19T14:47:31.076Z,81.21
2023-01-19T14:50:02.270Z,80.85
2023-01-19T14:52:32.652Z,80.96
2023-01-19T14:55:03.780Z,81.03
2023-01-19T14:57:31.534Z,80.56
2023-01-19T14:59:59.425Z,80.79
2023-01-19T15:02:27.751Z,81.00
2023-01-19T15:04:58.049Z,81.24
2023-01-19T15:07:26.084Z,81.08
2023-01-19T15:09:53.959Z,81.15
2023-01-19T15:12:24.052Z,80.95
2023-01-19T15:14:51.772Z,80.96
2023-01-19T15:17:25.313Z,81.12
2023-01-19T15:19:54.356Z,80.78
2023-01-19T15:22:23.403Z,81.04
2023-01-19T15:24:51.336Z,81.11
2023-01-19T15:27:19.459Z,81.59
2023-01-19T15:29:48.548Z,81.60
2023-01-19T15:32:18.752Z,81.80
2023-01-19T15:34:46.515Z,81.04
2023-01-19T15:37:14.211Z,81.03
2023-01-19T15:39:41.912Z,80.77
2023-01-19T15:42:11.859Z,80.85
2023-01-19T15:44:39.566Z,81.27
2023-01-19T15:47:10.135Z,81.10
2023-01-19T15:49:38.079Z,81.06
2023-01-19T15:52:06.233Z,81.23
2023-01-19T15:54:33.899Z,80.90
2023-01-19T15:57:01.954Z,80.78
2023-01-19T15:59:29.619Z,81.54
2023-01-19T16:01:57.720Z,81.63
2023-01-19T16:04:26.953Z,81.29
2023-01-19T16:06:54.656Z,81.49
2023-01-19T16:09:23.152Z,81.52
2023-01-19T16:11:50.840Z,81.13
